sensor_id;sensor_type;location;lat;lon;timestamp;temperature;humidity
15072;DHT22;7635;56.696;13.002;2022-10-19T00:02:06;8.80;99.90
15072;DHT22;7635;56.696;13.002;2022-10-19T00:04:33;8.80;99.90
15072;DHT22;7635;56.696;13.002;2022-10-19T00:07:00;8.70;99.90
15072;DHT22;7635;56.696;13.002;2022-10-19T00:09:26;8.60;99.90
15072;DHT22;7635;56.696;13.002;2022-10-19T00:11:55;8.60;99.90
15072;DHT22;7635;56.696;13.002;2022-10-19T00:14:22;8.50;99.90
15072;DHT22;7635;56.696;13.002;2022-10-19T00:16:50;8.50;99.90
15072;DHT22;7635;56.696;13.002;2022-10-19T00:19:19;8.40;99.90
15072;DHT22;7635;56.696;13.002;2022-10-19T00:21:46;8.30;99.90
15072;DHT22;7635;56.696;13.002;2022-10-19T00:24:13;8.30;99.90
15072;DHT22;7635;56.696;13.002;2022-10-19T00:26:40;8.20;99.90
15072;DHT22;7635;56.696;13.002;2022-10-19T00:29:10;8.20;99.90
15072;DHT22;7635;56.696;13.002;2022-10-19T00:31:37;8.10;99.90
15072;DHT22;7635;56.696;13.002;2022-10-19T00:34:04;8.10;99.90
15072;DHT22;7635;56.696;13.002;2022-10-19T00:36:33;8.00;99.90
15072;DHT22;7635;56.696;13.002;2022-10-19T00:39:02;7.90;99.90
15072;DHT22;7635;56.696;13.002;2022-10-19T00:41:31;7.90;99.90
15072;DHT22;7635;56.696;13.002;2022-10-19T00:44:00;7.80;99.90
15072;DHT22;7635;56.696;13.002;2022-10-19T00:46:30;7.80;99.90
15072;DHT22;7635;56.696;13.002;2022-10-19T00:49:02;7.80;99.90
15072;DHT22;7635;56.696;13.002;2022-10-19T00:51:31;7.70;99.90
15072;DHT22;7635;56.696;13.002;2022-10-19T00:54:00;7.70;99.90
15072;DHT22;7635;56.696;13.002;2022-10-19T00:56:28;7.70;99.90
15072;DHT22;7635;56.696;13.002;2022-10-19T00:58:55;7.60;99.90
15072;DHT22;7635;56.696;13.002;2022-10-19T01:01:23;7.60;99.90
15072;DHT22;7635;56.696;13.002;2022-10-19T01:03:54;7.60;99.90
15072;DHT22;7635;56.696;13.002;2022-10-19T01:06:22;7.50;99.90
15072;DHT22;7635;56.696;13.002;2022-10-19T01:08:49;7.50;99.90
15072;DHT22;7635;56.696;13.002;2022-10-19T01:11:25;7.40;99.90
15072;DHT22;7635;56.696;13.002;2022-10-19T01:14:08;7.40;99.90
15072;DHT22;7635;56.696;13.002;2022-10-19T01:16:45;7.30;99.90
15072;DHT22;7635;56.696;13.002;2022-10-19T01:19:33;7.30;99.90
15072;DHT22;7635;56.696;13.002;2022-10-19T01:22:11;7.30;99.90
15072;DHT22;7635;56.696;13.002;2022-10-19T01:24:59;7.30;99.90
15072;DHT22;7635;56.696;13.002;2022-10-19T01:27:39;7.30;99.90
15072;DHT22;7635;56.696;13.002;2022-10-19T01:30:16;7.30;99.90
15072;DHT22;7635;56.696;13.002;2022-10-19T01:32:58;7.30;99.90
15072;DHT22;7635;56.696;13.002;2022-10-19T01:35:32;7.30;99.90
15072;DHT22;7635;56.696;13.002;2022-10-19T01:38:06;7.30;99.90
15072;DHT22;7635;56.696;13.002;2022-10-19T01:40:42;7.30;99.90
15072;DHT22;7635;56.696;13.002;2022-10-19T01:43:18;7.20;99.90
15072;DHT22;7635;56.696;13.002;2022-10-19T01:45:51;7.20;99.90
15072;DHT22;7635;56.696;13.002;2022-10-19T01:48:22;7.20;99.90
15072;DHT22;7635;56.696;13.002;2022-10-19T01:50:54;7.20;99.90
15072;DHT22;7635;56.696;13.002;2022-10-19T01:53:23;7.10;99.90
15072;DHT22;7635;56.696;13.002;2022-10-19T01:55:52;7.10;99.90
15072;DHT22;7635;56.696;13.002;2022-10-19T01:58:24;7.10;99.90
15072;DHT22;7635;56.696;13.002;2022-10-19T02:00:55;7.10;99.90
15072;DHT22;7635;56.696;13.002;2022-10-19T02:03:23;7.10;99.90
15072;DHT22;7635;56.696;13.002;2022-10-19T02:05:52;7.10;99.90
15072;DHT22;7635;56.696;13.002;2022-10-19T02:08:22;7.10;99.90
15072;DHT22;7635;56.696;13.002;2022-10-19T02:10:50;7.10;99.90
15072;DHT22;7635;56.696;13.002;2022-10-19T02:13:18;7.00;99.90
15072;DHT22;7635;56.696;13.002;2022-10-19T02:15:49;7.00;99.90
15072;DHT22;7635;56.696;13.002;2022-10-19T02:18:24;7.00;99.90
15072;DHT22;7635;56.696;13.002;2022-10-19T02:20:52;6.90;99.90
15072;DHT22;7635;56.696;13.002;2022-10-19T02:23:21;6.90;99.90
15072;DHT22;7635;56.696;13.002;2022-10-19T02:25:49;6.90;99.90
15072;DHT22;7635;56.696;13.002;2022-10-19T02:28:16;6.80;99.90
15072;DHT22;7635;56.696;13.002;2022-10-19T02:30:43;6.80;99.90
15072;DHT22;7635;56.696;13.002;2022-10-19T02:33:10;6.80;99.90
15072;DHT22;7635;56.696;13.002;2022-10-19T02:35:39;6.80;99.90
15072;DHT22;7635;56.696;13.002;2022-10-19T02:38:06;6.80;99.90
15072;DHT22;7635;56.696;13.002;2022-10-19T02:40:38;6.80;99.90
15072;DHT22;7635;56.696;13.002;2022-10-19T02:43:10;6.70;99.90
15072;DHT22;7635;56.696;13.002;2022-10-19T02:45:43;6.70;99.90
15072;DHT22;7635;56.696;13.002;2022-10-19T02:48:16;6.70;99.90
15072;DHT22;7635;56.696;13.002;2022-10-19T02:50:45;6.60;99.90
15072;DHT22;7635;56.696;13.002;2022-10-19T02:53:13;6.60;99.90
15072;DHT22;7635;56.696;13.002;2022-10-19T02:55:40;6.50;99.90
15072;DHT22;7635;56.696;13.002;2022-10-19T02:58:07;6.50;99.90
15072;DHT22;7635;56.696;13.002;2022-10-19T03:00:34;6.40;99.90
15072;DHT22;7635;56.696;13.002;2022-10-19T03:03:01;6.30;99.90
15072;DHT22;7635;56.696;13.002;2022-10-19T03:05:28;6.30;99.90
15072;DHT22;7635;56.696;13.002;2022-10-19T03:07:56;6.20;99.90
15072;DHT22;7635;56.696;13.002;2022-10-19T03:10:23;6.20;99.90
15072;DHT22;7635;56.696;13.002;2022-10-19T03:12:50;6.10;99.90
15072;DHT22;7635;56.696;13.002;2022-10-19T03:15:18;6.10;99.90
15072;DHT22;7635;56.696;13.002;2022-10-19T03:17:45;6.00;99.90
15072;DHT22;7635;56.696;13.002;2022-10-19T03:20:12;6.00;99.90
15072;DHT22;7635;56.696;13.002;2022-10-19T03:22:38;5.90;99.90
15072;DHT22;7635;56.696;13.002;2022-10-19T03:25:07;5.90;99.90
15072;DHT22;7635;56.696;13.002;2022-10-19T03:27:34;5.80;99.90
15072;DHT22;7635;56.696;13.002;2022-10-19T03:30:01;5.70;99.90
15072;DHT22;7635;56.696;13.002;2022-10-19T03:32:28;5.70;99.90
15072;DHT22;7635;56.696;13.002;2022-10-19T03:34:55;5.70;99.90
15072;DHT22;7635;56.696;13.002;2022-10-19T03:37:21;5.70;99.90
15072;DHT22;7635;56.696;13.002;2022-10-19T03:39:48;5.60;99.90
15072;DHT22;7635;56.696;13.002;2022-10-19T03:42:16;5.60;99.90
15072;DHT22;7635;56.696;13.002;2022-10-19T03:44:43;5.60;99.90
15072;DHT22;7635;56.696;13.002;2022-10-19T03:47:10;5.50;99.90
15072;DHT22;7635;56.696;13.002;2022-10-19T03:49:36;5.50;99.90
15072;DHT22;7635;56.696;13.002;2022-10-19T03:52:03;5.50;99.90
15072;DHT22;7635;56.696;13.002;2022-10-19T03:54:30;5.50;99.90
15072;DHT22;7635;56.696;13.002;2022-10-19T03:56:57;5.40;99.90
15072;DHT22;7635;56.696;13.002;2022-10-19T03:59:25;5.40;99.90
15072;DHT22;7635;56.696;13.002;2022-10-19T04:01:52;5.40;99.90
15072;DHT22;7635;56.696;13.002;2022-10-19T04:04:19;5.40;99.90
15072;DHT22;7635;56.696;13.002;2022-10-19T04:06:47;5.40;99.90
15072;DHT22;7635;56.696;13.002;2022-10-19T04:09:18;5.40;99.90
15072;DHT22;7635;56.696;13.002;2022-10-19T04:11:45;5.40;99.90
15072;DHT22;7635;56.696;13.002;2022-10-19T04:14:14;5.50;99.90
15072;DHT22;7635;56.696;13.002;2022-10-19T04:16:42;5.50;99.90
15072;DHT22;7635;56.696;13.002;2022-10-19T04:19:13;5.50;99.90
15072;DHT22;7635;56.696;13.002;2022-10-19T04:21:40;5.50;99.90
15072;DHT22;7635;56.696;13.002;2022-10-19T04:24:10;5.50;99.90
15072;DHT22;7635;56.696;13.002;2022-10-19T04:26:39;5.60;99.90
15072;DHT22;7635;56.696;13.002;2022-10-19T04:29:06;5.60;99.90
15072;DHT22;7635;56.696;13.002;2022-10-19T04:31:33;5.60;99.90
15072;DHT22;7635;56.696;13.002;2022-10-19T04:34:01;5.60;99.90
15072;DHT22;7635;56.696;13.002;2022-10-19T04:36:28;5.60;99.90
15072;DHT22;7635;56.696;13.002;2022-10-19T04:38:55;5.60;99.90
15072;DHT22;7635;56.696;13.002;2022-10-19T04:41:22;5.60;99.90
15072;DHT22;7635;56.696;13.002;2022-10-19T04:43:54;5.60;99.90
15072;DHT22;7635;56.696;13.002;2022-10-19T04:46:22;5.60;99.90
15072;DHT22;7635;56.696;13.002;2022-10-19T04:48:49;5.60;99.90
15072;DHT22;7635;56.696;13.002;2022-10-19T04:51:20;5.60;99.90
15072;DHT22;7635;56.696;13.002;2022-10-19T04:53:47;5.60;99.90
15072;DHT22;7635;56.696;13.002;2022-10-19T04:56:16;5.50;99.90
15072;DHT22;7635;56.696;13.002;2022-10-19T04:58:43;5.50;99.90
15072;DHT22;7635;56.696;13.002;2022-10-19T05:01:11;5.50;99.90
15072;DHT22;7635;56.696;13.002;2022-10-19T05:03:38;5.50;99.90
15072;DHT22;7635;56.696;13.002;2022-10-19T05:06:06;5.40;99.90
15072;DHT22;7635;56.696;13.002;2022-10-19T05:08:35;5.40;99.90
15072;DHT22;7635;56.696;13.002;2022-10-19T05:11:03;5.40;99.90
15072;DHT22;7635;56.696;13.002;2022-10-19T05:13:31;5.40;99.90
15072;DHT22;7635;56.696;13.002;2022-10-19T05:15:59;5.40;99.90
15072;DHT22;7635;56.696;13.002;2022-10-19T05:18:26;5.30;99.90
15072;DHT22;7635;56.696;13.002;2022-10-19T05:21:00;5.30;99.90
15072;DHT22;7635;56.696;13.002;2022-10-19T05:23:27;5.30;99.90
15072;DHT22;7635;56.696;13.002;2022-10-19T05:26:00;5.30;99.90
15072;DHT22;7635;56.696;13.002;2022-10-19T05:28:27;5.20;99.90
15072;DHT22;7635;56.696;13.002;2022-10-19T05:30:54;5.20;99.90
15072;DHT22;7635;56.696;13.002;2022-10-19T05:33:21;5.20;99.90
15072;DHT22;7635;56.696;13.002;2022-10-19T05:35:48;5.10;99.90
15072;DHT22;7635;56.696;13.002;2022-10-19T05:38:14;5.10;99.90
15072;DHT22;7635;56.696;13.002;2022-10-19T05:40:44;5.00;99.90
15072;DHT22;7635;56.696;13.002;2022-10-19T05:43:12;5.00;99.90
15072;DHT22;7635;56.696;13.002;2022-10-19T05:45:39;4.90;99.90
15072;DHT22;7635;56.696;13.002;2022-10-19T05:48:06;4.90;99.90
15072;DHT22;7635;56.696;13.002;2022-10-19T05:50:33;4.80;99.90
15072;DHT22;7635;56.696;13.002;2022-10-19T05:52:59;4.70;99.90
15072;DHT22;7635;56.696;13.002;2022-10-19T05:55:26;4.70;99.90
15072;DHT22;7635;56.696;13.002;2022-10-19T05:57:53;4.70;99.90
15072;DHT22;7635;56.696;13.002;2022-10-19T06:00:21;4.60;99.90
15072;DHT22;7635;56.696;13.002;2022-10-19T06:02:48;4.60;99.90
15072;DHT22;7635;56.696;13.002;2022-10-19T06:05:14;4.60;99.90
15072;DHT22;7635;56.696;13.002;2022-10-19T06:07:41;4.50;99.90
15072;DHT22;7635;56.696;13.002;2022-10-19T06:10:08;4.50;99.90
15072;DHT22;7635;56.696;13.002;2022-10-19T06:12:36;4.40;99.90
15072;DHT22;7635;56.696;13.002;2022-10-19T06:15:03;4.40;99.90
15072;DHT22;7635;56.696;13.002;2022-10-19T06:17:31;4.40;99.90
15072;DHT22;7635;56.696;13.002;2022-10-19T06:19:58;4.30;99.90
15072;DHT22;7635;56.696;13.002;2022-10-19T06:22:24;4.30;99.90
15072;DHT22;7635;56.696;13.002;2022-10-19T06:24:51;4.30;99.90
15072;DHT22;7635;56.696;13.002;2022-10-19T06:27:18;4.20;99.90
15072;DHT22;7635;56.696;13.002;2022-10-19T06:29:45;4.20;99.90
15072;DHT22;7635;56.696;13.002;2022-10-19T06:32:11;4.20;99.90
15072;DHT22;7635;56.696;13.002;2022-10-19T06:34:39;4.20;99.90
15072;DHT22;7635;56.696;13.002;2022-10-19T06:37:06;4.20;99.90
15072;DHT22;7635;56.696;13.002;2022-10-19T06:39:33;4.20;99.90
15072;DHT22;7635;56.696;13.002;2022-10-19T06:42:00;4.20;99.90
15072;DHT22;7635;56.696;13.002;2022-10-19T06:44:26;4.20;99.90
15072;DHT22;7635;56.696;13.002;2022-10-19T06:46:53;4.10;99.90
15072;DHT22;7635;56.696;13.002;2022-10-19T06:49:20;4.10;99.90
15072;DHT22;7635;56.696;13.002;2022-10-19T06:51:48;4.10;99.90
15072;DHT22;7635;56.696;13.002;2022-10-19T06:54:14;4.10;99.90
15072;DHT22;7635;56.696;13.002;2022-10-19T06:56:41;4.00;99.90
15072;DHT22;7635;56.696;13.002;2022-10-19T06:59:08;4.00;99.90
15072;DHT22;7635;56.696;13.002;2022-10-19T07:01:36;4.00;99.90
15072;DHT22;7635;56.696;13.002;2022-10-19T07:04:04;4.00;99.90
15072;DHT22;7635;56.696;13.002;2022-10-19T07:06:30;4.00;99.90
15072;DHT22;7635;56.696;13.002;2022-10-19T07:08:58;4.10;99.90
15072;DHT22;7635;56.696;13.002;2022-10-19T07:11:27;4.00;99.90
15072;DHT22;7635;56.696;13.002;2022-10-19T07:13:54;4.10;99.90
15072;DHT22;7635;56.696;13.002;2022-10-19T07:16:21;4.10;99.90
15072;DHT22;7635;56.696;13.002;2022-10-19T07:18:52;4.10;99.90
15072;DHT22;7635;56.696;13.002;2022-10-19T07:21:21;4.10;99.90
15072;DHT22;7635;56.696;13.002;2022-10-19T07:23:48;4.10;99.90
15072;DHT22;7635;56.696;13.002;2022-10-19T07:26:17;4.10;99.90
15072;DHT22;7635;56.696;13.002;2022-10-19T07:28:46;4.20;99.90
15072;DHT22;7635;56.696;13.002;2022-10-19T07:31:15;4.20;99.90
15072;DHT22;7635;56.696;13.002;2022-10-19T07:33:43;4.20;99.90
15072;DHT22;7635;56.696;13.002;2022-10-19T07:36:11;4.30;99.90
15072;DHT22;7635;56.696;13.002;2022-10-19T07:38:38;4.30;99.90
15072;DHT22;7635;56.696;13.002;2022-10-19T07:41:07;4.30;99.90
15072;DHT22;7635;56.696;13.002;2022-10-19T07:43:35;4.30;99.90
15072;DHT22;7635;56.696;13.002;2022-10-19T07:46:04;4.40;99.90
15072;DHT22;7635;56.696;13.002;2022-10-19T07:48:32;4.40;99.90
15072;DHT22;7635;56.696;13.002;2022-10-19T07:51:00;4.40;99.90
15072;DHT22;7635;56.696;13.002;2022-10-19T07:53:27;4.50;99.90
15072;DHT22;7635;56.696;13.002;2022-10-19T07:55:54;4.50;99.90
15072;DHT22;7635;56.696;13.002;2022-10-19T07:58:21;4.50;99.90
15072;DHT22;7635;56.696;13.002;2022-10-19T08:00:49;4.60;99.90
15072;DHT22;7635;56.696;13.002;2022-10-19T08:03:16;4.60;99.90
15072;DHT22;7635;56.696;13.002;2022-10-19T08:05:43;4.70;99.90
15072;DHT22;7635;56.696;13.002;2022-10-19T08:08:09;5.00;99.90
15072;DHT22;7635;56.696;13.002;2022-10-19T08:10:36;5.50;99.90
15072;DHT22;7635;56.696;13.002;2022-10-19T08:13:03;6.20;99.90
15072;DHT22;7635;56.696;13.002;2022-10-19T08:15:30;7.00;99.90
15072;DHT22;7635;56.696;13.002;2022-10-19T08:17:58;7.60;99.90
15072;DHT22;7635;56.696;13.002;2022-10-19T08:20:25;8.30;99.90
15072;DHT22;7635;56.696;13.002;2022-10-19T08:22:52;8.90;99.90
15072;DHT22;7635;56.696;13.002;2022-10-19T08:25:19;9.40;99.90
15072;DHT22;7635;56.696;13.002;2022-10-19T08:27:46;10.00;99.90
15072;DHT22;7635;56.696;13.002;2022-10-19T08:30:12;10.70;99.90
15072;DHT22;7635;56.696;13.002;2022-10-19T08:32:39;11.20;99.90
15072;DHT22;7635;56.696;13.002;2022-10-19T08:35:08;11.70;99.90
15072;DHT22;7635;56.696;13.002;2022-10-19T08:37:34;12.20;99.90
15072;DHT22;7635;56.696;13.002;2022-10-19T08:40:01;12.60;99.90
15072;DHT22;7635;56.696;13.002;2022-10-19T08:42:45;13.00;99.90
15072;DHT22;7635;56.696;13.002;2022-10-19T08:45:25;13.40;99.90
15072;DHT22;7635;56.696;13.002;2022-10-19T08:47:59;13.90;99.90
15072;DHT22;7635;56.696;13.002;2022-10-19T08:50:36;14.30;99.90
15072;DHT22;7635;56.696;13.002;2022-10-19T08:53:05;14.50;99.90
15072;DHT22;7635;56.696;13.002;2022-10-19T08:55:40;14.80;99.90
15072;DHT22;7635;56.696;13.002;2022-10-19T08:58:24;15.20;99.90
15072;DHT22;7635;56.696;13.002;2022-10-19T09:00:58;15.60;99.90
15072;DHT22;7635;56.696;13.002;2022-10-19T09:03:32;15.80;99.90
15072;DHT22;7635;56.696;13.002;2022-10-19T09:06:11;16.00;99.90
15072;DHT22;7635;56.696;13.002;2022-10-19T09:08:45;16.40;99.90
15072;DHT22;7635;56.696;13.002;2022-10-19T09:11:12;16.80;99.90
15072;DHT22;7635;56.696;13.002;2022-10-19T09:13:43;17.10;99.90
15072;DHT22;7635;56.696;13.002;2022-10-19T09:16:12;17.30;99.90
15072;DHT22;7635;56.696;13.002;2022-10-19T09:18:40;17.60;99.90
15072;DHT22;7635;56.696;13.002;2022-10-19T09:21:13;17.80;99.90
15072;DHT22;7635;56.696;13.002;2022-10-19T09:23:44;17.90;99.90
15072;DHT22;7635;56.696;13.002;2022-10-19T09:26:14;18.30;99.90
15072;DHT22;7635;56.696;13.002;2022-10-19T09:28:47;18.60;99.90
15072;DHT22;7635;56.696;13.002;2022-10-19T09:31:21;18.90;99.90
15072;DHT22;7635;56.696;13.002;2022-10-19T09:33:53;19.20;99.90
15072;DHT22;7635;56.696;13.002;2022-10-19T09:36:23;19.50;99.90
15072;DHT22;7635;56.696;13.002;2022-10-19T09:38:55;19.60;99.90
15072;DHT22;7635;56.696;13.002;2022-10-19T09:41:22;19.80;99.90
15072;DHT22;7635;56.696;13.002;2022-10-19T09:43:51;20.00;99.90
15072;DHT22;7635;56.696;13.002;2022-10-19T09:46:29;20.00;99.90
15072;DHT22;7635;56.696;13.002;2022-10-19T09:48:59;20.20;99.90
15072;DHT22;7635;56.696;13.002;2022-10-19T09:51:38;20.40;99.90
15072;DHT22;7635;56.696;13.002;2022-10-19T09:54:22;20.70;99.90
15072;DHT22;7635;56.696;13.002;2022-10-19T09:56:52;20.80;99.90
15072;DHT22;7635;56.696;13.002;2022-10-19T09:59:21;21.00;99.90
15072;DHT22;7635;56.696;13.002;2022-10-19T10:01:58;21.20;99.90
15072;DHT22;7635;56.696;13.002;2022-10-19T10:04:26;21.20;99.90
15072;DHT22;7635;56.696;13.002;2022-10-19T10:06:56;21.50;99.90
15072;DHT22;7635;56.696;13.002;2022-10-19T10:09:26;21.30;99.90
15072;DHT22;7635;56.696;13.002;2022-10-19T10:11:56;21.40;99.90
15072;DHT22;7635;56.696;13.002;2022-10-19T10:14:27;21.30;99.90
15072;DHT22;7635;56.696;13.002;2022-10-19T10:16:56;21.60;99.90
15072;DHT22;7635;56.696;13.002;2022-10-19T10:19:27;21.60;99.90
15072;DHT22;7635;56.696;13.002;2022-10-19T10:21:57;21.50;99.90
15072;DHT22;7635;56.696;13.002;2022-10-19T10:24:26;21.70;99.90
15072;DHT22;7635;56.696;13.002;2022-10-19T10:26:54;21.80;99.90
15072;DHT22;7635;56.696;13.002;2022-10-19T10:29:23;21.90;99.90
15072;DHT22;7635;56.696;13.002;2022-10-19T10:31:52;22.00;99.90
15072;DHT22;7635;56.696;13.002;2022-10-19T10:34:30;22.00;99.90
15072;DHT22;7635;56.696;13.002;2022-10-19T10:36:59;22.00;99.90
15072;DHT22;7635;56.696;13.002;2022-10-19T10:39:27;22.20;99.90
15072;DHT22;7635;56.696;13.002;2022-10-19T10:41:58;22.30;99.90
15072;DHT22;7635;56.696;13.002;2022-10-19T10:44:28;22.30;99.90
15072;DHT22;7635;56.696;13.002;2022-10-19T10:46:57;22.10;99.90
15072;DHT22;7635;56.696;13.002;2022-10-19T10:49:26;21.90;99.90
15072;DHT22;7635;56.696;13.002;2022-10-19T10:51:55;21.70;99.90
15072;DHT22;7635;56.696;13.002;2022-10-19T10:54:24;21.80;99.90
15072;DHT22;7635;56.696;13.002;2022-10-19T10:57:11;21.80;99.90
15072;DHT22;7635;56.696;13.002;2022-10-19T10:59:48;21.80;99.90
15072;DHT22;7635;56.696;13.002;2022-10-19T11:02:27;21.50;99.90
15072;DHT22;7635;56.696;13.002;2022-10-19T11:04:58;21.40;99.90
15072;DHT22;7635;56.696;13.002;2022-10-19T11:07:28;21.20;99.90
15072;DHT22;7635;56.696;13.002;2022-10-19T11:09:58;21.20;99.90
15072;DHT22;7635;56.696;13.002;2022-10-19T11:12:36;21.30;99.90
15072;DHT22;7635;56.696;13.002;2022-10-19T11:15:11;21.40;99.90
15072;DHT22;7635;56.696;13.002;2022-10-19T11:17:53;21.40;99.90
15072;DHT22;7635;56.696;13.002;2022-10-19T11:20:22;21.20;99.90
15072;DHT22;7635;56.696;13.002;2022-10-19T11:23:00;21.20;99.90
15072;DHT22;7635;56.696;13.002;2022-10-19T11:25:35;21.10;99.90
15072;DHT22;7635;56.696;13.002;2022-10-19T11:28:18;20.90;99.90
15072;DHT22;7635;56.696;13.002;2022-10-19T11:30:56;20.90;99.90
15072;DHT22;7635;56.696;13.002;2022-10-19T11:33:36;21.00;99.90
15072;DHT22;7635;56.696;13.002;2022-10-19T11:36:14;21.00;99.90
15072;DHT22;7635;56.696;13.002;2022-10-19T11:38:50;20.80;99.90
15072;DHT22;7635;56.696;13.002;2022-10-19T11:41:29;20.60;99.90
15072;DHT22;7635;56.696;13.002;2022-10-19T11:44:19;20.50;99.90
15072;DHT22;7635;56.696;13.002;2022-10-19T11:46:58;20.50;99.90
15072;DHT22;7635;56.696;13.002;2022-10-19T11:49:38;20.50;99.90
15072;DHT22;7635;56.696;13.002;2022-10-19T11:52:11;20.40;99.90
15072;DHT22;7635;56.696;13.002;2022-10-19T11:54:51;20.30;99.90
15072;DHT22;7635;56.696;13.002;2022-10-19T11:57:25;20.10;99.90
15072;DHT22;7635;56.696;13.002;2022-10-19T12:00:02;20.00;99.90
15072;DHT22;7635;56.696;13.002;2022-10-19T12:02:54;19.80;99.90
15072;DHT22;7635;56.696;13.002;2022-10-19T12:05:28;19.50;99.90
15072;DHT22;7635;56.696;13.002;2022-10-19T12:08:08;19.50;99.90
15072;DHT22;7635;56.696;13.002;2022-10-19T12:10:44;19.10;99.90
15072;DHT22;7635;56.696;13.002;2022-10-19T12:13:16;18.60;99.90
15072;DHT22;7635;56.696;13.002;2022-10-19T12:15:47;18.20;99.90
15072;DHT22;7635;56.696;13.002;2022-10-19T12:18:27;17.70;99.90
15072;DHT22;7635;56.696;13.002;2022-10-19T12:20:57;17.40;99.90
15072;DHT22;7635;56.696;13.002;2022-10-19T12:23:27;17.20;99.90
15072;DHT22;7635;56.696;13.002;2022-10-19T12:25:57;17.00;99.90
15072;DHT22;7635;56.696;13.002;2022-10-19T12:28:29;16.80;99.90
15072;DHT22;7635;56.696;13.002;2022-10-19T12:30:58;16.60;99.90
15072;DHT22;7635;56.696;13.002;2022-10-19T12:33:30;16.50;99.90
15072;DHT22;7635;56.696;13.002;2022-10-19T12:36:07;16.40;99.90
15072;DHT22;7635;56.696;13.002;2022-10-19T12:38:43;16.30;99.90
15072;DHT22;7635;56.696;13.002;2022-10-19T12:41:22;16.10;99.90
15072;DHT22;7635;56.696;13.002;2022-10-19T12:44:10;16.00;99.90
15072;DHT22;7635;56.696;13.002;2022-10-19T12:46:40;16.00;99.90
15072;DHT22;7635;56.696;13.002;2022-10-19T12:49:33;15.80;99.90
15072;DHT22;7635;56.696;13.002;2022-10-19T12:52:00;15.70;99.90
15072;DHT22;7635;56.696;13.002;2022-10-19T12:54:29;15.60;99.90
15072;DHT22;7635;56.696;13.002;2022-10-19T12:56:57;15.40;99.90
15072;DHT22;7635;56.696;13.002;2022-10-19T12:59:29;15.30;99.90
15072;DHT22;7635;56.696;13.002;2022-10-19T13:01:57;15.20;99.90
15072;DHT22;7635;56.696;13.002;2022-10-19T13:04:26;15.10;99.90
15072;DHT22;7635;56.696;13.002;2022-10-19T13:06:59;15.10;99.90
15072;DHT22;7635;56.696;13.002;2022-10-19T13:09:29;15.00;99.90
15072;DHT22;7635;56.696;13.002;2022-10-19T13:15:08;14.90;99.90
15072;DHT22;7635;56.696;13.002;2022-10-19T13:17:53;14.80;99.90
15072;DHT22;7635;56.696;13.002;2022-10-19T13:20:47;14.70;99.90
15072;DHT22;7635;56.696;13.002;2022-10-19T13:23:36;14.60;99.90
15072;DHT22;7635;56.696;13.002;2022-10-19T13:26:32;14.50;99.90
15072;DHT22;7635;56.696;13.002;2022-10-19T13:29:00;14.40;99.90
15072;DHT22;7635;56.696;13.002;2022-10-19T13:31:30;14.40;99.90
15072;DHT22;7635;56.696;13.002;2022-10-19T13:33:57;14.30;99.90
15072;DHT22;7635;56.696;13.002;2022-10-19T13:36:25;14.20;99.90
15072;DHT22;7635;56.696;13.002;2022-10-19T13:39:11;14.10;99.90
15072;DHT22;7635;56.696;13.002;2022-10-19T13:41:46;14.00;99.90
15072;DHT22;7635;56.696;13.002;2022-10-19T13:44:21;14.00;99.90
15072;DHT22;7635;56.696;13.002;2022-10-19T13:47:04;13.90;99.90
15072;DHT22;7635;56.696;13.002;2022-10-19T13:49:55;13.80;99.90
15072;DHT22;7635;56.696;13.002;2022-10-19T13:52:36;13.70;99.90
15072;DHT22;7635;56.696;13.002;2022-10-19T14:01:25;13.40;99.90
15072;DHT22;7635;56.696;13.002;2022-10-19T14:04:06;13.30;99.90
15072;DHT22;7635;56.696;13.002;2022-10-19T14:06:42;13.20;99.90
15072;DHT22;7635;56.696;13.002;2022-10-19T14:12:22;13.10;99.90
15072;DHT22;7635;56.696;13.002;2022-10-19T14:14:49;13.00;99.90
15072;DHT22;7635;56.696;13.002;2022-10-19T14:17:19;12.90;99.90
15072;DHT22;7635;56.696;13.002;2022-10-19T14:19:51;12.80;99.90
15072;DHT22;7635;56.696;13.002;2022-10-19T14:22:24;12.70;99.90
15072;DHT22;7635;56.696;13.002;2022-10-19T14:24:51;12.60;99.90
15072;DHT22;7635;56.696;13.002;2022-10-19T14:27:24;12.60;99.90
15072;DHT22;7635;56.696;13.002;2022-10-19T14:29:52;12.60;99.90
15072;DHT22;7635;56.696;13.002;2022-10-19T14:32:22;12.50;99.90
15072;DHT22;7635;56.696;13.002;2022-10-19T14:34:52;12.50;99.90
15072;DHT22;7635;56.696;13.002;2022-10-19T14:37:20;12.40;99.90
15072;DHT22;7635;56.696;13.002;2022-10-19T14:40:02;12.30;99.90
15072;DHT22;7635;56.696;13.002;2022-10-19T14:42:37;12.30;99.90
15072;DHT22;7635;56.696;13.002;2022-10-19T14:45:13;12.20;99.90
15072;DHT22;7635;56.696;13.002;2022-10-19T14:47:54;12.10;99.90
15072;DHT22;7635;56.696;13.002;2022-10-19T14:50:26;12.00;99.90
15072;DHT22;7635;56.696;13.002;2022-10-19T14:52:57;12.00;99.90
15072;DHT22;7635;56.696;13.002;2022-10-19T14:55:25;11.90;99.90
15072;DHT22;7635;56.696;13.002;2022-10-19T14:57:55;11.80;99.90
15072;DHT22;7635;56.696;13.002;2022-10-19T15:00:23;11.80;99.90
15072;DHT22;7635;56.696;13.002;2022-10-19T15:02:56;11.70;99.90
15072;DHT22;7635;56.696;13.002;2022-10-19T15:05:27;11.70;99.90
15072;DHT22;7635;56.696;13.002;2022-10-19T15:07:54;11.60;99.90
15072;DHT22;7635;56.696;13.002;2022-10-19T15:10:24;11.50;99.90
15072;DHT22;7635;56.696;13.002;2022-10-19T15:12:59;11.40;99.90
15072;DHT22;7635;56.696;13.002;2022-10-19T15:15:28;11.30;99.90
15072;DHT22;7635;56.696;13.002;2022-10-19T15:18:02;11.30;99.90
15072;DHT22;7635;56.696;13.002;2022-10-19T15:20:32;11.20;99.90
15072;DHT22;7635;56.696;13.002;2022-10-19T15:23:00;11.10;99.90
15072;DHT22;7635;56.696;13.002;2022-10-19T15:25:31;11.00;99.90
15072;DHT22;7635;56.696;13.002;2022-10-19T15:28:28;10.90;99.90
15072;DHT22;7635;56.696;13.002;2022-10-19T15:30:58;10.80;99.90
15072;DHT22;7635;56.696;13.002;2022-10-19T15:33:25;10.70;99.90
15072;DHT22;7635;56.696;13.002;2022-10-19T15:36:04;10.60;99.90
15072;DHT22;7635;56.696;13.002;2022-10-19T15:38:32;10.50;99.90
15072;DHT22;7635;56.696;13.002;2022-10-19T15:41:00;10.40;99.90
15072;DHT22;7635;56.696;13.002;2022-10-19T15:46:24;10.30;99.90
15072;DHT22;7635;56.696;13.002;2022-10-19T15:48:53;10.20;99.90
15072;DHT22;7635;56.696;13.002;2022-10-19T15:51:36;10.10;99.90
15072;DHT22;7635;56.696;13.002;2022-10-19T15:54:06;10.10;99.90
15072;DHT22;7635;56.696;13.002;2022-10-19T15:56:35;9.90;99.90
15072;DHT22;7635;56.696;13.002;2022-10-19T15:59:05;9.80;99.90
15072;DHT22;7635;56.696;13.002;2022-10-19T16:01:34;9.70;99.90
15072;DHT22;7635;56.696;13.002;2022-10-19T16:04:01;9.60;99.90
15072;DHT22;7635;56.696;13.002;2022-10-19T16:06:30;9.40;99.90
15072;DHT22;7635;56.696;13.002;2022-10-19T16:08:59;9.30;99.90
15072;DHT22;7635;56.696;13.002;2022-10-19T16:11:27;9.20;99.90
15072;DHT22;7635;56.696;13.002;2022-10-19T16:13:54;9.00;99.90
15072;DHT22;7635;56.696;13.002;2022-10-19T16:16:22;8.90;99.90
15072;DHT22;7635;56.696;13.002;2022-10-19T16:18:50;8.80;99.90